Terminal Aerodrome Forecast
Issued by NWS

Home | Current Version | Previous Version | Text Only | Print | Product List | Glossary On
Versions: 1 2 3 4 5 6 7 8 9 10 11 12 13 14 15 16 17 18 19 20 21 22 23 24 25 26 27 28 29 30 31 32 33 34 35 36 37 38 39 40 41 42 43 44 45 46 47 48 49
000
FTUS43 KMKX 290520
TAFENW
TAF
KENW 290520Z 2906/3006 12008KT P6SM VCSH SCT050 BKN080
     FM290800 14007KT P6SM -SHRA VCTS SCT025 BKN040CB OVC070
     FM291500 18011G15KT P6SM SCT040 BKN080
     FM300300 18008KT P6SM SCT040 BKN070
      TEMPO 3003/3006 4SM TSRA SCT020 BKN035CB OVC050=

USA.gov is the U.S. government's official web portal to all federal, state and local government web resources and services.